sensor_id;sensor_type;location;lat;lon;timestamp;pressure;altitude;pressure_sealevel;temperature;humidity
79465;BME280;68932;47.410;8.232;2023-12-22T00:01:32;95997.83;;;8.18;75.48
79465;BME280;68932;47.410;8.232;2023-12-22T00:04:00;95986.41;;;8.19;75.23
79465;BME280;68932;47.410;8.232;2023-12-22T00:06:28;95998.16;;;8.21;75.04
79465;BME280;68932;47.410;8.232;2023-12-22T00:08:56;95998.73;;;8.23;75.15
79465;BME280;68932;47.410;8.232;2023-12-22T00:11:25;95987.44;;;8.24;75.33
79465;BME280;68932;47.410;8.232;2023-12-22T00:13:53;95978.16;;;8.25;75.40
79465;BME280;68932;47.410;8.232;2023-12-22T00:16:21;95987.87;;;8.25;75.21
79465;BME280;68932;47.410;8.232;2023-12-22T00:18:49;95994.80;;;8.26;75.47
79465;BME280;68932;47.410;8.232;2023-12-22T00:21:18;95992.69;;;8.26;75.19
79465;BME280;68932;47.410;8.232;2023-12-22T00:23:46;95997.10;;;8.28;75.14
79465;BME280;68932;47.410;8.232;2023-12-22T00:26:14;95988.67;;;8.29;75.04
79465;BME280;68932;47.410;8.232;2023-12-22T00:28:43;95986.86;;;8.30;74.79
79465;BME280;68932;47.410;8.232;2023-12-22T00:31:11;95981.23;;;8.30;74.91
79465;BME280;68932;47.410;8.232;2023-12-22T00:33:39;95982.45;;;8.30;74.43
79465;BME280;68932;47.410;8.232;2023-12-22T00:36:09;95982.80;;;8.30;74.17
79465;BME280;68932;47.410;8.232;2023-12-22T00:38:37;95990.16;;;8.30;73.78
79465;BME280;68932;47.410;8.232;2023-12-22T00:41:05;95992.13;;;8.29;73.56
79465;BME280;68932;47.410;8.232;2023-12-22T00:43:34;95987.42;;;8.29;73.62
79465;BME280;68932;47.410;8.232;2023-12-22T00:46:02;96003.20;;;8.28;73.73
79465;BME280;68932;47.410;8.232;2023-12-22T00:48:30;96020.73;;;8.27;73.93
79465;BME280;68932;47.410;8.232;2023-12-22T00:50:59;96032.66;;;8.27;73.85
79465;BME280;68932;47.410;8.232;2023-12-22T00:53:27;96044.20;;;8.26;73.65
79465;BME280;68932;47.410;8.232;2023-12-22T00:55:55;96038.27;;;8.26;73.63
79465;BME280;68932;47.410;8.232;2023-12-22T00:58:23;96040.52;;;8.26;73.84
79465;BME280;68932;47.410;8.232;2023-12-22T01:00:51;96049.79;;;8.26;73.82
79465;BME280;68932;47.410;8.232;2023-12-22T01:03:20;96071.20;;;8.27;73.71
79465;BME280;68932;47.410;8.232;2023-12-22T01:05:48;96069.05;;;8.28;74.00
79465;BME280;68932;47.410;8.232;2023-12-22T01:08:16;96074.10;;;8.28;74.69
79465;BME280;68932;47.410;8.232;2023-12-22T01:10:44;96075.95;;;8.27;75.22
79465;BME280;68932;47.410;8.232;2023-12-22T01:13:13;96084.09;;;8.25;75.95
79465;BME280;68932;47.410;8.232;2023-12-22T01:15:41;96090.91;;;8.22;76.45
79465;BME280;68932;47.410;8.232;2023-12-22T01:18:09;96096.80;;;8.21;76.56
79465;BME280;68932;47.410;8.232;2023-12-22T01:20:38;96091.54;;;8.19;76.54
79465;BME280;68932;47.410;8.232;2023-12-22T01:23:06;96095.32;;;8.17;76.30
79465;BME280;68932;47.410;8.232;2023-12-22T01:25:34;96093.23;;;8.14;76.26
79465;BME280;68932;47.410;8.232;2023-12-22T01:28:03;96095.49;;;8.12;76.46
79465;BME280;68932;47.410;8.232;2023-12-22T01:30:31;96094.04;;;8.08;76.66
79465;BME280;68932;47.410;8.232;2023-12-22T01:32:59;96092.54;;;8.04;76.90
79465;BME280;68932;47.410;8.232;2023-12-22T01:35:27;96095.03;;;8.01;76.88
79465;BME280;68932;47.410;8.232;2023-12-22T01:37:56;96093.65;;;7.98;77.02
79465;BME280;68932;47.410;8.232;2023-12-22T01:40:24;96094.74;;;7.95;77.06
79465;BME280;68932;47.410;8.232;2023-12-22T01:42:52;96088.78;;;7.93;76.94
79465;BME280;68932;47.410;8.232;2023-12-22T01:45:20;96077.96;;;7.90;76.90
79465;BME280;68932;47.410;8.232;2023-12-22T01:47:49;96070.98;;;7.88;76.81
79465;BME280;68932;47.410;8.232;2023-12-22T01:50:17;96067.13;;;7.86;76.76
79465;BME280;68932;47.410;8.232;2023-12-22T01:52:46;96076.15;;;7.84;76.55
79465;BME280;68932;47.410;8.232;2023-12-22T01:55:16;96092.05;;;7.84;76.60
79465;BME280;68932;47.410;8.232;2023-12-22T01:57:45;96100.79;;;7.83;76.68
79465;BME280;68932;47.410;8.232;2023-12-22T02:00:16;96104.17;;;7.85;76.72
79465;BME280;68932;47.410;8.232;2023-12-22T02:02:44;96106.73;;;7.85;76.74
79465;BME280;68932;47.410;8.232;2023-12-22T02:05:12;96104.79;;;7.86;76.88
79465;BME280;68932;47.410;8.232;2023-12-22T02:07:42;96093.58;;;7.86;76.93
79465;BME280;68932;47.410;8.232;2023-12-22T02:10:11;96103.14;;;7.87;76.82
79465;BME280;68932;47.410;8.232;2023-12-22T02:12:39;96099.73;;;7.89;76.86
79465;BME280;68932;47.410;8.232;2023-12-22T02:15:09;96095.86;;;7.89;76.83
79465;BME280;68932;47.410;8.232;2023-12-22T02:17:43;96086.52;;;7.90;76.85
79465;BME280;68932;47.410;8.232;2023-12-22T02:20:12;96097.81;;;7.91;77.15
79465;BME280;68932;47.410;8.232;2023-12-22T02:22:41;96104.64;;;7.91;77.14
79465;BME280;68932;47.410;8.232;2023-12-22T02:25:09;96112.98;;;7.91;77.10
79465;BME280;68932;47.410;8.232;2023-12-22T02:27:42;96115.96;;;7.91;77.20
79465;BME280;68932;47.410;8.232;2023-12-22T02:30:15;96109.33;;;7.91;77.06
79465;BME280;68932;47.410;8.232;2023-12-22T02:32:50;96109.36;;;7.90;77.00
79465;BME280;68932;47.410;8.232;2023-12-22T02:35:21;96108.50;;;7.90;77.05
79465;BME280;68932;47.410;8.232;2023-12-22T02:37:52;96100.13;;;7.90;77.16
79465;BME280;68932;47.410;8.232;2023-12-22T02:40:21;96109.95;;;7.89;77.24
79465;BME280;68932;47.410;8.232;2023-12-22T02:42:50;96105.96;;;7.89;77.22
79465;BME280;68932;47.410;8.232;2023-12-22T02:45:19;96106.53;;;7.89;76.96
79465;BME280;68932;47.410;8.232;2023-12-22T02:47:48;96104.55;;;7.87;76.32
79465;BME280;68932;47.410;8.232;2023-12-22T02:50:17;96106.32;;;7.84;76.20
79465;BME280;68932;47.410;8.232;2023-12-22T02:52:45;96102.41;;;7.80;76.01
79465;BME280;68932;47.410;8.232;2023-12-22T02:55:14;96109.88;;;7.75;76.08
79465;BME280;68932;47.410;8.232;2023-12-22T02:57:43;96101.80;;;7.71;76.31
79465;BME280;68932;47.410;8.232;2023-12-22T03:00:13;96101.77;;;7.67;76.60
79465;BME280;68932;47.410;8.232;2023-12-22T03:02:41;96104.45;;;7.63;76.74
79465;BME280;68932;47.410;8.232;2023-12-22T03:05:09;96099.91;;;7.60;76.94
79465;BME280;68932;47.410;8.232;2023-12-22T03:07:37;96096.38;;;7.58;76.97
79465;BME280;68932;47.410;8.232;2023-12-22T03:10:07;96099.61;;;7.56;77.14
79465;BME280;68932;47.410;8.232;2023-12-22T03:12:35;96100.89;;;7.56;76.97
79465;BME280;68932;47.410;8.232;2023-12-22T03:15:05;96105.30;;;7.55;76.62
79465;BME280;68932;47.410;8.232;2023-12-22T03:17:33;96109.98;;;7.55;76.69
79465;BME280;68932;47.410;8.232;2023-12-22T03:20:01;96112.70;;;7.57;76.08
79465;BME280;68932;47.410;8.232;2023-12-22T03:22:30;96118.13;;;7.59;75.32
79465;BME280;68932;47.410;8.232;2023-12-22T03:24:58;96111.56;;;7.64;74.67
79465;BME280;68932;47.410;8.232;2023-12-22T03:27:26;96119.73;;;7.69;74.75
79465;BME280;68932;47.410;8.232;2023-12-22T03:29:54;96127.09;;;7.74;74.94
79465;BME280;68932;47.410;8.232;2023-12-22T03:32:23;96133.49;;;7.77;74.73
79465;BME280;68932;47.410;8.232;2023-12-22T03:34:51;96125.45;;;7.80;74.40
79465;BME280;68932;47.410;8.232;2023-12-22T03:37:19;96127.10;;;7.84;74.24
79465;BME280;68932;47.410;8.232;2023-12-22T03:39:47;96127.95;;;7.86;74.37
79465;BME280;68932;47.410;8.232;2023-12-22T03:42:15;96128.73;;;7.88;74.69
79465;BME280;68932;47.410;8.232;2023-12-22T03:44:44;96132.39;;;7.88;74.44
79465;BME280;68932;47.410;8.232;2023-12-22T03:47:12;96133.80;;;7.88;74.45
79465;BME280;68932;47.410;8.232;2023-12-22T03:49:40;96130.70;;;7.87;74.50
79465;BME280;68932;47.410;8.232;2023-12-22T03:52:09;96128.73;;;7.85;74.51
79465;BME280;68932;47.410;8.232;2023-12-22T03:54:37;96133.32;;;7.82;74.60
79465;BME280;68932;47.410;8.232;2023-12-22T03:57:06;96137.33;;;7.80;74.65
79465;BME280;68932;47.410;8.232;2023-12-22T03:59:34;96145.73;;;7.76;74.45
79465;BME280;68932;47.410;8.232;2023-12-22T04:02:02;96151.38;;;7.73;74.41
79465;BME280;68932;47.410;8.232;2023-12-22T04:04:30;96157.35;;;7.70;74.65
79465;BME280;68932;47.410;8.232;2023-12-22T04:06:59;96159.33;;;7.67;74.75
79465;BME280;68932;47.410;8.232;2023-12-22T04:09:27;96177.75;;;7.62;73.88
79465;BME280;68932;47.410;8.232;2023-12-22T04:11:55;96176.27;;;7.58;73.47
79465;BME280;68932;47.410;8.232;2023-12-22T04:14:23;96190.30;;;7.54;73.53
79465;BME280;68932;47.410;8.232;2023-12-22T04:16:52;96173.98;;;7.50;73.57
79465;BME280;68932;47.410;8.232;2023-12-22T04:19:20;96189.08;;;7.46;73.44
79465;BME280;68932;47.410;8.232;2023-12-22T04:21:48;96195.23;;;7.43;73.78
79465;BME280;68932;47.410;8.232;2023-12-22T04:24:17;96198.94;;;7.39;73.88
79465;BME280;68932;47.410;8.232;2023-12-22T04:26:45;96201.41;;;7.36;73.34
79465;BME280;68932;47.410;8.232;2023-12-22T04:29:13;96195.83;;;7.34;74.01
79465;BME280;68932;47.410;8.232;2023-12-22T04:31:42;96188.14;;;7.31;73.85
79465;BME280;68932;47.410;8.232;2023-12-22T04:34:11;96185.96;;;7.30;74.10
79465;BME280;68932;47.410;8.232;2023-12-22T04:36:39;96191.27;;;7.29;73.87
79465;BME280;68932;47.410;8.232;2023-12-22T04:39:08;96194.25;;;7.29;73.43
79465;BME280;68932;47.410;8.232;2023-12-22T04:41:36;96200.14;;;7.29;73.40
79465;BME280;68932;47.410;8.232;2023-12-22T04:44:05;96205.45;;;7.31;73.18
79465;BME280;68932;47.410;8.232;2023-12-22T04:46:33;96206.73;;;7.32;72.66
79465;BME280;68932;47.410;8.232;2023-12-22T04:49:01;96212.05;;;7.34;73.10
79465;BME280;68932;47.410;8.232;2023-12-22T04:51:29;96208.23;;;7.33;73.49
79465;BME280;68932;47.410;8.232;2023-12-22T04:53:57;96205.98;;;7.33;73.85
79465;BME280;68932;47.410;8.232;2023-12-22T04:56:25;96193.30;;;7.33;73.77
79465;BME280;68932;47.410;8.232;2023-12-22T04:58:54;96191.88;;;7.33;72.20
79465;BME280;68932;47.410;8.232;2023-12-22T05:01:22;96213.48;;;7.36;70.85
79465;BME280;68932;47.410;8.232;2023-12-22T05:03:50;96207.77;;;7.40;71.02
79465;BME280;68932;47.410;8.232;2023-12-22T05:06:18;96214.52;;;7.44;71.54
79465;BME280;68932;47.410;8.232;2023-12-22T05:08:47;96217.16;;;7.46;72.03
79465;BME280;68932;47.410;8.232;2023-12-22T05:11:15;96218.16;;;7.47;72.52
79465;BME280;68932;47.410;8.232;2023-12-22T05:13:43;96231.02;;;7.48;72.88
79465;BME280;68932;47.410;8.232;2023-12-22T05:16:12;96241.61;;;7.48;73.30
79465;BME280;68932;47.410;8.232;2023-12-22T05:18:41;96240.24;;;7.48;73.51
79465;BME280;68932;47.410;8.232;2023-12-22T05:21:09;96233.30;;;7.47;73.67
79465;BME280;68932;47.410;8.232;2023-12-22T05:23:39;96236.08;;;7.47;73.92
79465;BME280;68932;47.410;8.232;2023-12-22T05:26:07;96240.16;;;7.47;73.87
79465;BME280;68932;47.410;8.232;2023-12-22T05:28:36;96242.61;;;7.46;73.66
79465;BME280;68932;47.410;8.232;2023-12-22T05:31:04;96237.23;;;7.46;73.85
79465;BME280;68932;47.410;8.232;2023-12-22T05:33:32;96245.27;;;7.46;73.74
79465;BME280;68932;47.410;8.232;2023-12-22T05:36:01;96240.05;;;7.45;73.48
79465;BME280;68932;47.410;8.232;2023-12-22T05:38:29;96235.84;;;7.46;73.33
79465;BME280;68932;47.410;8.232;2023-12-22T05:40:57;96235.27;;;7.46;73.08
79465;BME280;68932;47.410;8.232;2023-12-22T05:43:25;96233.67;;;7.47;72.88
79465;BME280;68932;47.410;8.232;2023-12-22T05:45:54;96248.45;;;7.48;72.53
79465;BME280;68932;47.410;8.232;2023-12-22T05:48:22;96250.45;;;7.49;72.20
79465;BME280;68932;47.410;8.232;2023-12-22T05:50:50;96249.14;;;7.50;71.99
79465;BME280;68932;47.410;8.232;2023-12-22T05:53:19;96252.37;;;7.51;71.60
79465;BME280;68932;47.410;8.232;2023-12-22T05:55:47;96249.34;;;7.53;71.48
79465;BME280;68932;47.410;8.232;2023-12-22T05:58:15;96255.20;;;7.53;71.52
79465;BME280;68932;47.410;8.232;2023-12-22T06:00:43;96264.09;;;7.54;71.47
79465;BME280;68932;47.410;8.232;2023-12-22T06:03:12;96265.60;;;7.54;71.42
79465;BME280;68932;47.410;8.232;2023-12-22T06:05:40;96262.80;;;7.55;71.46
79465;BME280;68932;47.410;8.232;2023-12-22T06:08:08;96270.44;;;7.55;71.45
79465;BME280;68932;47.410;8.232;2023-12-22T06:10:37;96275.98;;;7.56;71.41
79465;BME280;68932;47.410;8.232;2023-12-22T06:13:05;96276.46;;;7.56;71.31
79465;BME280;68932;47.410;8.232;2023-12-22T06:15:34;96284.96;;;7.57;71.28
79465;BME280;68932;47.410;8.232;2023-12-22T06:18:03;96274.27;;;7.58;71.29
79465;BME280;68932;47.410;8.232;2023-12-22T06:20:31;96277.32;;;7.59;71.14
79465;BME280;68932;47.410;8.232;2023-12-22T06:23:00;96282.86;;;7.60;70.82
79465;BME280;68932;47.410;8.232;2023-12-22T06:25:28;96282.19;;;7.63;70.74
79465;BME280;68932;47.410;8.232;2023-12-22T06:27:56;96278.79;;;7.64;71.08
79465;BME280;68932;47.410;8.232;2023-12-22T06:30:24;96290.81;;;7.64;70.79
79465;BME280;68932;47.410;8.232;2023-12-22T06:32:53;96294.88;;;7.66;70.87
79465;BME280;68932;47.410;8.232;2023-12-22T06:35:21;96301.42;;;7.67;70.41
79465;BME280;68932;47.410;8.232;2023-12-22T06:37:50;96300.77;;;7.69;70.26
79465;BME280;68932;47.410;8.232;2023-12-22T06:40:18;96307.29;;;7.71;70.44
79465;BME280;68932;47.410;8.232;2023-12-22T06:42:46;96302.70;;;7.72;70.32
79465;BME280;68932;47.410;8.232;2023-12-22T06:45:14;96300.24;;;7.72;70.14
79465;BME280;68932;47.410;8.232;2023-12-22T06:47:43;96307.89;;;7.73;70.21
79465;BME280;68932;47.410;8.232;2023-12-22T06:50:11;96301.61;;;7.72;70.27
79465;BME280;68932;47.410;8.232;2023-12-22T06:52:40;96304.05;;;7.72;70.30
79465;BME280;68932;47.410;8.232;2023-12-22T06:55:10;96300.39;;;7.73;70.26
79465;BME280;68932;47.410;8.232;2023-12-22T06:57:38;96293.94;;;7.72;70.02
79465;BME280;68932;47.410;8.232;2023-12-22T07:00:08;96291.42;;;7.73;69.91
79465;BME280;68932;47.410;8.232;2023-12-22T07:02:37;96292.58;;;7.74;69.58
79465;BME280;68932;47.410;8.232;2023-12-22T07:05:30;96298.64;;;7.75;69.53
79465;BME280;68932;47.410;8.232;2023-12-22T07:07:59;96315.64;;;7.77;69.82
79465;BME280;68932;47.410;8.232;2023-12-22T07:10:27;96304.45;;;7.77;70.19
79465;BME280;68932;47.410;8.232;2023-12-22T07:12:55;96298.80;;;7.75;70.25
79465;BME280;68932;47.410;8.232;2023-12-22T07:15:23;96317.50;;;7.74;70.82
79465;BME280;68932;47.410;8.232;2023-12-22T07:17:52;96324.77;;;7.73;70.80
79465;BME280;68932;47.410;8.232;2023-12-22T07:20:20;96325.92;;;7.71;70.87
79465;BME280;68932;47.410;8.232;2023-12-22T07:22:48;96326.65;;;7.71;71.13
79465;BME280;68932;47.410;8.232;2023-12-22T07:25:17;96329.48;;;7.70;71.23
79465;BME280;68932;47.410;8.232;2023-12-22T07:27:46;96345.54;;;7.70;71.33
79465;BME280;68932;47.410;8.232;2023-12-22T07:30:15;96342.26;;;7.70;71.45
79465;BME280;68932;47.410;8.232;2023-12-22T07:32:45;96345.80;;;7.69;71.41
79465;BME280;68932;47.410;8.232;2023-12-22T07:35:13;96350.52;;;7.69;71.18
79465;BME280;68932;47.410;8.232;2023-12-22T07:37:42;96359.71;;;7.70;71.02
79465;BME280;68932;47.410;8.232;2023-12-22T07:40:13;96361.41;;;7.70;71.14
79465;BME280;68932;47.410;8.232;2023-12-22T07:42:41;96369.73;;;7.71;70.92
79465;BME280;68932;47.410;8.232;2023-12-22T07:45:11;96377.55;;;7.71;70.81
79465;BME280;68932;47.410;8.232;2023-12-22T07:47:39;96385.15;;;7.72;70.81
79465;BME280;68932;47.410;8.232;2023-12-22T07:50:09;96392.62;;;7.73;70.69
79465;BME280;68932;47.410;8.232;2023-12-22T07:52:37;96382.76;;;7.74;70.41
79465;BME280;68932;47.410;8.232;2023-12-22T07:55:07;96394.73;;;7.76;70.54
79465;BME280;68932;47.410;8.232;2023-12-22T07:57:36;96392.19;;;7.77;70.44
79465;BME280;68932;47.410;8.232;2023-12-22T08:00:07;96397.39;;;7.78;70.32
79465;BME280;68932;47.410;8.232;2023-12-22T08:02:35;96404.27;;;7.79;70.34
79465;BME280;68932;47.410;8.232;2023-12-22T08:05:04;96412.38;;;7.80;70.34
79465;BME280;68932;47.410;8.232;2023-12-22T08:07:32;96415.48;;;7.81;70.23
79465;BME280;68932;47.410;8.232;2023-12-22T08:10:00;96409.97;;;7.83;70.40
79465;BME280;68932;47.410;8.232;2023-12-22T08:12:29;96416.52;;;7.84;70.35
79465;BME280;68932;47.410;8.232;2023-12-22T08:14:57;96418.75;;;7.85;70.29
79465;BME280;68932;47.410;8.232;2023-12-22T08:17:25;96415.05;;;7.85;69.99
79465;BME280;68932;47.410;8.232;2023-12-22T08:19:53;96414.44;;;7.87;70.25
79465;BME280;68932;47.410;8.232;2023-12-22T08:22:22;96424.20;;;7.87;70.29
79465;BME280;68932;47.410;8.232;2023-12-22T08:24:50;96422.09;;;7.87;70.25
79465;BME280;68932;47.410;8.232;2023-12-22T08:27:18;96428.47;;;7.88;70.34
79465;BME280;68932;47.410;8.232;2023-12-22T08:29:47;96421.41;;;7.89;70.66
79465;BME280;68932;47.410;8.232;2023-12-22T08:32:15;96422.42;;;7.90;70.26
79465;BME280;68932;47.410;8.232;2023-12-22T08:34:43;96419.58;;;7.91;70.19
79465;BME280;68932;47.410;8.232;2023-12-22T08:37:13;96423.04;;;7.91;70.22
79465;BME280;68932;47.410;8.232;2023-12-22T08:39:41;96420.74;;;7.91;70.04
79465;BME280;68932;47.410;8.232;2023-12-22T08:42:09;96420.48;;;7.93;70.35
79465;BME280;68932;47.410;8.232;2023-12-22T08:44:37;96424.59;;;7.94;70.11
79465;BME280;68932;47.410;8.232;2023-12-22T08:47:06;96419.66;;;7.95;70.23
79465;BME280;68932;47.410;8.232;2023-12-22T08:49:34;96426.30;;;7.95;70.40
79465;BME280;68932;47.410;8.232;2023-12-22T08:52:03;96420.48;;;7.96;70.44
79465;BME280;68932;47.410;8.232;2023-12-22T08:54:31;96415.27;;;7.95;70.32
79465;BME280;68932;47.410;8.232;2023-12-22T08:56:59;96413.90;;;7.95;70.42
79465;BME280;68932;47.410;8.232;2023-12-22T08:59:28;96423.88;;;7.94;70.33
79465;BME280;68932;47.410;8.232;2023-12-22T09:01:56;96422.20;;;7.93;70.49
79465;BME280;68932;47.410;8.232;2023-12-22T09:04:24;96419.47;;;7.92;70.65
79465;BME280;68932;47.410;8.232;2023-12-22T09:06:53;96427.52;;;7.92;70.75
79465;BME280;68932;47.410;8.232;2023-12-22T09:09:21;96432.33;;;7.90;70.55
79465;BME280;68932;47.410;8.232;2023-12-22T09:11:49;96431.88;;;7.89;70.44
79465;BME280;68932;47.410;8.232;2023-12-22T09:14:18;96441.52;;;7.89;70.90
79465;BME280;68932;47.410;8.232;2023-12-22T09:16:46;96441.54;;;7.89;71.04
79465;BME280;68932;47.410;8.232;2023-12-22T09:19:14;96423.80;;;7.87;70.96
79465;BME280;68932;47.410;8.232;2023-12-22T09:21:43;96428.77;;;7.86;71.15
79465;BME280;68932;47.410;8.232;2023-12-22T09:24:11;96427.77;;;7.85;71.14
79465;BME280;68932;47.410;8.232;2023-12-22T09:26:39;96433.45;;;7.84;71.35
79465;BME280;68932;47.410;8.232;2023-12-22T09:29:08;96441.42;;;7.85;71.35
79465;BME280;68932;47.410;8.232;2023-12-22T09:31:36;96434.45;;;7.85;71.25
79465;BME280;68932;47.410;8.232;2023-12-22T09:34:04;96442.14;;;7.85;71.17
79465;BME280;68932;47.410;8.232;2023-12-22T09:36:32;96444.21;;;7.85;70.93
79465;BME280;68932;47.410;8.232;2023-12-22T09:39:00;96439.40;;;7.86;70.87
79465;BME280;68932;47.410;8.232;2023-12-22T09:41:28;96442.22;;;7.89;70.80
79465;BME280;68932;47.410;8.232;2023-12-22T09:43:57;96440.49;;;7.91;70.47
79465;BME280;68932;47.410;8.232;2023-12-22T09:46:27;96439.68;;;7.93;70.71
79465;BME280;68932;47.410;8.232;2023-12-22T09:48:56;96440.54;;;7.96;70.56
79465;BME280;68932;47.410;8.232;2023-12-22T09:51:25;96446.73;;;7.97;70.37
79465;BME280;68932;47.410;8.232;2023-12-22T09:53:56;96440.36;;;7.98;70.36
79465;BME280;68932;47.410;8.232;2023-12-22T09:56:25;96453.20;;;8.00;70.50
79465;BME280;68932;47.410;8.232;2023-12-22T09:58:54;96451.98;;;7.99;70.52
79465;BME280;68932;47.410;8.232;2023-12-22T10:01:24;96448.83;;;8.00;70.73
79465;BME280;68932;47.410;8.232;2023-12-22T10:03:54;96449.98;;;8.01;70.82
79465;BME280;68932;47.410;8.232;2023-12-22T10:06:22;96444.82;;;8.03;70.87
79465;BME280;68932;47.410;8.232;2023-12-22T10:08:51;96443.91;;;8.04;70.87
79465;BME280;68932;47.410;8.232;2023-12-22T10:11:20;96447.58;;;8.04;71.00
79465;BME280;68932;47.410;8.232;2023-12-22T10:13:50;96438.73;;;8.05;71.30
79465;BME280;68932;47.410;8.232;2023-12-22T10:16:18;96438.59;;;8.07;71.47
79465;BME280;68932;47.410;8.232;2023-12-22T10:18:46;96434.05;;;8.08;71.33
79465;BME280;68932;47.410;8.232;2023-12-22T10:21:15;96431.60;;;8.08;71.39
79465;BME280;68932;47.410;8.232;2023-12-22T10:23:43;96433.69;;;8.08;71.32
79465;BME280;68932;47.410;8.232;2023-12-22T10:26:13;96430.77;;;8.07;71.18
79465;BME280;68932;47.410;8.232;2023-12-22T10:28:43;96430.96;;;8.07;71.00
79465;BME280;68932;47.410;8.232;2023-12-22T10:31:11;96425.96;;;8.06;71.28
79465;BME280;68932;47.410;8.232;2023-12-22T10:33:39;96427.11;;;8.07;71.46
79465;BME280;68932;47.410;8.232;2023-12-22T10:36:08;96429.67;;;8.08;71.43
79465;BME280;68932;47.410;8.232;2023-12-22T10:38:37;96433.26;;;8.09;71.65
79465;BME280;68932;47.410;8.232;2023-12-22T10:41:06;96432.37;;;8.09;71.36
79465;BME280;68932;47.410;8.232;2023-12-22T10:43:39;96431.67;;;8.09;71.34
79465;BME280;68932;47.410;8.232;2023-12-22T10:46:08;96430.33;;;8.09;71.87
79465;BME280;68932;47.410;8.232;2023-12-22T10:48:36;96418.30;;;8.05;72.27
79465;BME280;68932;47.410;8.232;2023-12-22T10:51:10;96415.92;;;8.01;72.66
79465;BME280;68932;47.410;8.232;2023-12-22T10:53:42;96414.40;;;7.98;73.00
79465;BME280;68932;47.410;8.232;2023-12-22T10:56:10;96404.30;;;7.95;73.72
79465;BME280;68932;47.410;8.232;2023-12-22T10:58:38;96405.25;;;7.91;74.17
79465;BME280;68932;47.410;8.232;2023-12-22T11:01:07;96409.55;;;7.87;74.92
79465;BME280;68932;47.410;8.232;2023-12-22T11:03:39;96405.29;;;7.80;75.62
79465;BME280;68932;47.410;8.232;2023-12-22T11:06:13;96402.79;;;7.72;76.21
79465;BME280;68932;47.410;8.232;2023-12-22T11:08:44;96402.90;;;7.65;76.53
79465;BME280;68932;47.410;8.232;2023-12-22T11:11:26;96389.73;;;7.58;77.04
79465;BME280;68932;47.410;8.232;2023-12-22T11:13:57;96378.66;;;7.51;77.32
79465;BME280;68932;47.410;8.232;2023-12-22T11:16:29;96377.89;;;7.44;77.70
79465;BME280;68932;47.410;8.232;2023-12-22T11:18:57;96367.16;;;7.37;77.94
79465;BME280;68932;47.410;8.232;2023-12-22T11:21:27;96353.06;;;7.31;78.50
79465;BME280;68932;47.410;8.232;2023-12-22T11:23:56;96355.14;;;7.26;78.63
79465;BME280;68932;47.410;8.232;2023-12-22T11:26:25;96351.27;;;7.21;79.08
79465;BME280;68932;47.410;8.232;2023-12-22T11:28:54;96353.48;;;7.16;79.34
79465;BME280;68932;47.410;8.232;2023-12-22T11:31:24;96345.00;;;7.12;79.43
79465;BME280;68932;47.410;8.232;2023-12-22T11:33:53;96335.64;;;7.09;79.57
79465;BME280;68932;47.410;8.232;2023-12-22T11:36:24;96330.39;;;7.06;79.59
79465;BME280;68932;47.410;8.232;2023-12-22T11:38:52;96323.60;;;7.03;79.94
79465;BME280;68932;47.410;8.232;2023-12-22T11:41:24;96315.80;;;7.00;80.21
79465;BME280;68932;47.410;8.232;2023-12-22T11:43:54;96319.77;;;6.98;80.55
79465;BME280;68932;47.410;8.232;2023-12-22T11:46:23;96324.62;;;6.95;80.84
79465;BME280;68932;47.410;8.232;2023-12-22T11:48:53;96318.10;;;6.93;81.11
79465;BME280;68932;47.410;8.232;2023-12-22T11:51:22;96313.05;;;6.94;81.28
79465;BME280;68932;47.410;8.232;2023-12-22T11:53:50;96313.11;;;6.93;81.19
79465;BME280;68932;47.410;8.232;2023-12-22T11:56:18;96312.60;;;6.92;81.50
79465;BME280;68932;47.410;8.232;2023-12-22T11:58:47;96300.78;;;6.92;81.49
79465;BME280;68932;47.410;8.232;2023-12-22T12:01:16;96295.41;;;6.91;81.50
79465;BME280;68932;47.410;8.232;2023-12-22T12:03:50;96286.67;;;6.92;81.26
79465;BME280;68932;47.410;8.232;2023-12-22T12:06:31;96287.54;;;6.92;81.29
79465;BME280;68932;47.410;8.232;2023-12-22T12:09:01;96282.11;;;6.92;81.33
79465;BME280;68932;47.410;8.232;2023-12-22T12:14:31;96277.60;;;6.95;81.64
79465;BME280;68932;47.410;8.232;2023-12-22T12:17:05;96275.95;;;6.96;81.69
79465;BME280;68932;47.410;8.232;2023-12-22T12:19:34;96274.31;;;6.97;81.80
79465;BME280;68932;47.410;8.232;2023-12-22T12:22:03;96270.29;;;6.97;81.83
79465;BME280;68932;47.410;8.232;2023-12-22T12:24:31;96260.66;;;6.98;81.94
79465;BME280;68932;47.410;8.232;2023-12-22T12:27:00;96260.02;;;7.00;82.03
79465;BME280;68932;47.410;8.232;2023-12-22T12:29:28;96270.88;;;7.02;82.11
79465;BME280;68932;47.410;8.232;2023-12-22T12:32:04;96270.42;;;7.04;82.07
79465;BME280;68932;47.410;8.232;2023-12-22T12:34:33;96262.89;;;7.05;82.34
79465;BME280;68932;47.410;8.232;2023-12-22T12:37:01;96267.89;;;7.05;82.28
79465;BME280;68932;47.410;8.232;2023-12-22T12:39:31;96251.97;;;7.06;82.48
79465;BME280;68932;47.410;8.232;2023-12-22T12:42:02;96263.61;;;7.07;82.50
79465;BME280;68932;47.410;8.232;2023-12-22T12:44:33;96264.81;;;7.07;82.58
79465;BME280;68932;47.410;8.232;2023-12-22T12:47:12;96270.54;;;7.07;82.82
79465;BME280;68932;47.410;8.232;2023-12-22T12:49:41;96268.58;;;7.08;82.84
79465;BME280;68932;47.410;8.232;2023-12-22T12:52:13;96261.55;;;7.09;82.82
79465;BME280;68932;47.410;8.232;2023-12-22T12:54:42;96272.46;;;7.10;82.83
79465;BME280;68932;47.410;8.232;2023-12-22T12:57:15;96264.39;;;7.11;83.05
79465;BME280;68932;47.410;8.232;2023-12-22T12:59:47;96265.90;;;7.12;83.08
79465;BME280;68932;47.410;8.232;2023-12-22T13:02:14;96263.78;;;7.12;83.15
79465;BME280;68932;47.410;8.232;2023-12-22T13:04:42;96263.75;;;7.13;83.09
79465;BME280;68932;47.410;8.232;2023-12-22T13:07:11;96266.27;;;7.14;82.93
79465;BME280;68932;47.410;8.232;2023-12-22T13:09:39;96266.64;;;7.17;82.96
79465;BME280;68932;47.410;8.232;2023-12-22T13:12:08;96264.05;;;7.19;83.06
79465;BME280;68932;47.410;8.232;2023-12-22T13:14:39;96269.98;;;7.22;83.16
79465;BME280;68932;47.410;8.232;2023-12-22T13:17:08;96264.22;;;7.25;83.20
79465;BME280;68932;47.410;8.232;2023-12-22T13:19:36;96265.85;;;7.26;83.12
79465;BME280;68932;47.410;8.232;2023-12-22T13:22:05;96263.96;;;7.29;83.18